Pagina principală
METAR-TAF:

METAR-TAF

Aeroporturi :

Curitiba, Paraná, Brazilia

Latitudine: 25-26S, longitudine: 049-16W, elevație: 924 m

Observații meteo curente

Raportul a fost făcut în urmă cu 51 de minute, la 14:00 UTC
Vânt 4 kt de la Nord-est
Temperatură 22°C
Umiditate 57%
Presiune 1025 hPa
Vizibilitate de 10 km sau mai mult
nu există nori sub 1.500 m și nici cumulonimbus

METAR: SBBI 121400Z 05004KT CAVOK 22/13 Q1025

Ora: 11:51 (14:51 UTC)

Prognoză

Raportul a fost făcut în urmă cu 5 ore și 51 de minute, la 09:00 UTC
Prognoză valabilă de la 12 ora 12 UTC la 12 ora 24 UTC
Vânt 2 kt de la Nord/Nord-est
Vizibilitate de 10 km sau mai mult
nu există nori sub 1.500 m și nici cumulonimbus
Probabilitate 30%
de la 12 ora 12 UTC la 12 ora 14 UTC
Vizibilitate: 3000 m
Nori fragmentați la o înălțime de 400 picior
aer cețos

TAF: SBBI 120900Z 1212/1224 02002KT CAVOK TX25/1217Z TN19/1223Z PROB30 1212/1214 3000 BR BKN004 RMK PEU

Observații și prognoze meteo pentru peste 4.000 de aeroporturi (rapoarte METAR și TAF).

Stațiile disponibile sunt reprezentate pe hartă prin puncte galbene și roșii.

Țineți indicatorul mouse-ului pe punctul dorit pentru a vedea denumirea stației.

Apoi, faceți clic pentru a vedea observațiile și prognozele meteorologice.

Pentru a schimba harta: Pentru mărire, faceți clic pe butoanele verzi cu cruce neagră; pentru micșorare, pe butonul verde cu o liniuță; pentru hărți învecinate, pe săgețile verzi.


METAR-TAF: